ADDS METAR Data INFO
IDs: Format: Raw Decoded Include TAF

Data at: 1352 UTC 17 Dec 2017

PAMC 171345Z AUTO 00000KT 10SM BKN023 BKN060 OVC120 M10/M12 A2943 RMK AO2 T11001122 TSNO $
PAMC 171253Z AUTO 00000KT 10SM SCT060 OVC100 M10/M12 A2942 RMK AO2 SLP970 T11001117 TSNO $
PAMC 171153Z AUTO 00000KT 10SM FEW120 M09/M12 A2940 RMK AO2 SLP963 70001 I1000 I6000 T10941117 11039 21100 53024 TSNO $
PAMC 171053Z AUTO 00000KT 10SM CLR M09/M12 A2937 RMK AO2 SLP955 I1000 T10941117 TSNO $
PAMC 170853Z AUTO 00000KT 5SM BR SCT100 M07/M09 A2933 RMK AO2 SLP939 I1000 I3000 T10721089 410331078 51016 TSNO $
PAMC 170753Z AUTO 00000KT 10SM FEW021 OVC110 M07/M08 A2930 RMK AO2 SLP931 T10671083 TSNO $
PAMC 170751Z AUTO 00000KT 10SM SCT021 OVC110 M07/M08 A2930 RMK AO2 TSNO $
PAMC 170653Z AUTO 00000KT 10SM OVC016 M05/M07 A2928 RMK AO2 SLP922 T10501067 TSNO $
PAMC 170553Z AUTO 00000KT 10SM OVC014 M04/M06 A2927 RMK AO2 SLP917 60000 T10391061 11039 21044 TSNO $
PAMC 170538Z AUTO 00000KT 10SM OVC015 M04/M06 A2926 RMK AO2 T10441061 TSNO $
PAMC 170453Z AUTO 00000KT 10SM OVC017 M04/M06 A2925 RMK AO2 SLP914 T10441061 TSNO
PAMC 170353Z AUTO 00000KT 10SM OVC019 M04/M07 A2923 RMK AO2 SLP906 T10441067 TSNO
PAMC 170253Z AUTO 00000KT 10SM OVC019 M04/M06 A2922 RMK AO2 SLP902 60000 T10441061 53010 TSNO
PAMC 170153Z AUTO 00000KT 7SM OVC019 M04/M06 A2920 RMK AO2 SNB31E47 SLP896 P0000 T10391061 TSNO
PAMC 170053Z AUTO 00000KT 10SM SCT007 OVC021 M04/M06 A2920 RMK AO2 SLP895 T10441061 TSNO
PAMC 162353Z AUTO 00000KT 10SM OVC006 M04/M07 A2919 RMK AO2 SLP892 60000 T10441067 11039 21050 51005 TSNO
PAMC 162253Z AUTO 00000KT 10SM BKN008 OVC023 M05/M07 A2918 RMK AO2 SLP890 T10501067 TSNO
PAMC 162249Z AUTO 00000KT 10SM BKN008 OVC021 M05/M07 A2918 RMK AO2 TSNO
PAMC 162228Z AUTO 30003KT 10SM FEW009 BKN021 M05/M07 A2918 RMK AO2 T10501067 TSNO
PAMC 162153Z AUTO 00000KT 10SM OVC023 M04/M06 A2917 RMK AO2 SLP887 T10441061 TSNO
PAMC 162134Z AUTO 00000KT 10SM SCT008 OVC023 M04/M06 A2917 RMK AO2 T10391061 TSNO
PAMC 162053Z AUTO 00000KT 10SM BKN008 OVC021 M04/M06 A2916 RMK AO2 SLP880 60000 T10391061 51008 TSNO
PAMC 161953Z AUTO 00000KT 10SM OVC009 M04/M06 A2915 RMK AO2 SLP879 T10441061 TSNO
PAMC 161853Z AUTO 00000KT 10SM OVC009 M04/M07 A2914 RMK AO2 SNE03 SLP876 P0000 T10441067 TSNO
PAMC 161845Z AUTO 00000KT 10SM OVC009 M05/M07 A2914 RMK AO2 SNE03 P0000 T10501067 TSNO
PAMC 161820Z AUTO 00000KT 10SM BKN010 BKN016 OVC026 M04/M07 A2914 RMK AO2 SNE03 CIG 009V013 P0000 T10441067 TSNO
PAMC 161753Z AUTO 00000KT 5SM -SN BR SCT009 OVC026 M04/M07 A2913 RMK AO2 SNE08B42 SLP872 P0000 60001 T10441067 11039 21056 53005 TSNO
PAMC 161739Z AUTO 00000KT 9SM SCT009 BKN018 OVC026 M04/M07 A2913 RMK AO2 SNE08 P0000 T10441067 TSNO
PAMC 161733Z AUTO 00000KT 10SM BKN010 BKN018 OVC026 M05/M07 A2913 RMK AO2 SNE08 CIG 007V012 P0000 T10501067 TSNO
PAMC 161707Z AUTO 09003KT 5SM -SN BR BKN017 OVC023 M04/M06 A2913 RMK AO2 P0000 T10441061 TSNO
PAMC 161653Z AUTO 00000KT 2SM -SN BR SCT016 BKN025 OVC030 M04/M07 A2913 RMK AO2 SLP869 P0001 T10441067 TSNO
PAMC 161646Z AUTO 00000KT 2 1/2SM -SN BR SCT016 OVC030 M04/M07 A2913 RMK AO2 P0001 T10441067 TSNO
PAMC 161632Z AUTO 00000KT 3SM -SN BR FEW010 SCT019 OVC030 M04/M06 A2913 RMK AO2 P0001 T10441061 TSNO
PAMC 161618Z AUTO 17003KT 2 1/2SM -SN BR SCT010 BKN019 OVC030 M04/M06 A2912 RMK AO2 P0000 T10441061 TSNO
PAMC 161553Z AUTO 00000KT 6SM -SN BR BKN011 OVC026 M04/M06 A2912 RMK AO2 SNB52 SLP868 P0000 T10391061 TSNO
PAMC 161453Z AUTO 00000KT 10SM OVC013 M04/M07 A2912 RMK AO2 SNE11 SLP867 P0000 60000 T10441067 51006 TSNO
PAMC 161441Z AUTO 00000KT 10SM OVC014 M04/M07 A2912 RMK AO2 SNE11 P0000 T10441067 TSNO
PAMC 161353Z AUTO 16003KT 4SM -SN BR OVC016 M04/M07 A2912 RMK AO2 SNB15 SLP866 P0000 T10441067 TSNO
PAMC 161253Z AUTO 00000KT 10SM OVC018 M05/M07 A2911 RMK AO2 SNB05E30 SLP863 P0000 T10501067 TSNO
PAMC 161209Z AUTO 00000KT 8SM -SN BKN019 BKN037 OVC065 M05/M07 A2910 RMK AO2 SNB05 P0000 T10501072 TSNO
PAMC 161153Z AUTO 00000KT 10SM SCT020 BKN065 M04/M07 A2910 RMK AO2 SLP861 T10441072 11017 21061 51000 TSNO
PAMC 161111Z AUTO 00000KT 10SM FEW018 OVC075 M05/M08 A2910 RMK AO2 T10501078 TSNO
PAMC 161053Z AUTO 14004KT 10SM BKN018 OVC075 M06/M07 A2910 RMK AO2 SLP861 T10561072 TSNO
PAMC 161022Z AUTO 11003KT 10SM BKN020 M05/M07 A2910 RMK AO2 T10501072 TSNO
PAMC 160953Z AUTO 00000KT 10SM FEW080 BKN110 M05/M07 A2910 RMK AO2 SLP862 T10501072 TSNO
PAMC 160853Z AUTO 00000KT 10SM BKN110 M03/M06 A2910 RMK AO2 SLP861 T10331061 400001072 55001 TSNO
PAMC 160753Z AUTO 17004KT 10SM OVC090 M03/M06 A2909 RMK AO2 SLP858 T10281056 TSNO
PAMC 160653Z AUTO 20003KT 10SM OVC100 M02/M05 A2910 RMK AO2 SLP860 T10221050 TSNO
PAMC 160553Z AUTO 20003KT 10SM OVC100 M01/M05 A2910 RMK AO2 SLP861 T10111050 10000 21017 58007 TSNO
PAMC 160453Z AUTO 28003KT 10SM OVC070 M01/M05 A2911 RMK AO2 SLP865 T10061050 TSNO
PAMC 160353Z AUTO VRB04KT 10SM OVC070 00/M05 A2912 RMK AO2 SLP867 T00001050 TSNO
PAMC 160253Z AUTO 11004KT 10SM OVC065 M01/M04 A2912 RMK AO2 SLP869 T10061044 56028 TSNO
PAMC 160153Z AUTO 29003KT 10SM OVC080 M02/M04 A2914 RMK AO2 SLP875 T10171044 TSNO